sensor_id;sensor_type;location;lat;lon;timestamp;pressure;altitude;pressure_sealevel;temperature;humidity
61961;BME280;47923;42.506;24.192;2023-07-02T00:01:40;94863.44;;;16.93;85.32
61961;BME280;47923;42.506;24.192;2023-07-02T00:04:05;94863.50;;;16.89;84.35
61961;BME280;47923;42.506;24.192;2023-07-02T00:06:34;94858.56;;;16.80;84.34
61961;BME280;47923;42.506;24.192;2023-07-02T00:09:06;94855.13;;;16.76;85.11
61961;BME280;47923;42.506;24.192;2023-07-02T00:11:31;94504.88;;;14.11;84.96
61961;BME280;47923;42.506;24.192;2023-07-02T00:13:58;94760.41;;;15.96;84.37
61961;BME280;47923;42.506;24.192;2023-07-02T00:16:23;94860.84;;;16.55;85.36
61961;BME280;47923;42.506;24.192;2023-07-02T00:18:49;94908.84;;;16.49;85.41
61961;BME280;47923;42.506;24.192;2023-07-02T00:21:18;94853.09;;;16.53;85.20
61961;BME280;47923;42.506;24.192;2023-07-02T00:23:44;94851.78;;;16.35;84.75
61961;BME280;47923;42.506;24.192;2023-07-02T00:26:10;94539.97;;;14.32;84.18
61961;BME280;47923;42.506;24.192;2023-07-02T00:28:35;94735.84;;;15.69;83.73
61961;BME280;47923;42.506;24.192;2023-07-02T00:31:01;94744.75;;;15.73;84.71
61961;BME280;47923;42.506;24.192;2023-07-02T00:33:27;94534.47;;;14.36;84.38
61961;BME280;47923;42.506;24.192;2023-07-02T00:35:54;94405.81;;;13.47;83.89
61961;BME280;47923;42.506;24.192;2023-07-02T00:38:20;94821.44;;;16.33;83.17
61961;BME280;47923;42.506;24.192;2023-07-02T00:40:45;94703.38;;;15.51;84.74
61961;BME280;47923;42.506;24.192;2023-07-02T00:43:11;94719.19;;;15.63;82.34
61961;BME280;47923;42.506;24.192;2023-07-02T00:45:41;94848.13;;;16.45;84.18
61961;BME280;47923;42.506;24.192;2023-07-02T00:48:06;94455.44;;;13.86;83.29
61961;BME280;47923;42.506;24.192;2023-07-02T00:50:32;94307.56;;;12.77;83.14
61961;BME280;47923;42.506;24.192;2023-07-02T00:52:58;94767.44;;;15.63;83.69
61961;BME280;47923;42.506;24.192;2023-07-02T00:55:24;94857.19;;;16.38;82.02
61961;BME280;47923;42.506;24.192;2023-07-02T00:57:49;94832.25;;;16.40;81.95
61961;BME280;47923;42.506;24.192;2023-07-02T01:00:15;94829.97;;;16.35;83.04
61961;BME280;47923;42.506;24.192;2023-07-02T01:02:41;94831.59;;;16.28;83.22
61961;BME280;47923;42.506;24.192;2023-07-02T01:05:18;94790.81;;;15.91;83.17
61961;BME280;47923;42.506;24.192;2023-07-02T01:07:46;94665.66;;;14.85;83.16
61961;BME280;47923;42.506;24.192;2023-07-02T01:10:12;94815.44;;;16.14;83.79
61961;BME280;47923;42.506;24.192;2023-07-02T01:12:38;94803.19;;;15.99;84.28
61961;BME280;47923;42.506;24.192;2023-07-02T01:15:05;94215.22;;;12.12;83.57
61961;BME280;47923;42.506;24.192;2023-07-02T01:17:32;94427.03;;;13.56;83.20
61961;BME280;47923;42.506;24.192;2023-07-02T01:20:08;94826.75;;;16.13;84.27
61961;BME280;47923;42.506;24.192;2023-07-02T01:22:34;94630.25;;;14.88;82.97
61961;BME280;47923;42.506;24.192;2023-07-02T01:25:00;94269.94;;;12.38;84.71
61961;BME280;47923;42.506;24.192;2023-07-02T01:27:28;94505.09;;;13.86;84.71
61961;BME280;47923;42.506;24.192;2023-07-02T01:29:54;94742.00;;;15.39;84.98
61961;BME280;47923;42.506;24.192;2023-07-02T01:32:20;94801.38;;;15.89;84.58
61961;BME280;47923;42.506;24.192;2023-07-02T01:34:45;94779.41;;;15.69;83.67
61961;BME280;47923;42.506;24.192;2023-07-02T01:37:14;94803.44;;;15.78;85.51
61961;BME280;47923;42.506;24.192;2023-07-02T01:39:40;94478.25;;;13.50;86.27
61961;BME280;47923;42.506;24.192;2023-07-02T01:42:16;94805.94;;;15.61;86.68
61961;BME280;47923;42.506;24.192;2023-07-02T01:44:43;94603.28;;;14.26;85.17
61961;BME280;47923;42.506;24.192;2023-07-02T01:47:09;94728.91;;;14.92;84.85
61961;BME280;47923;42.506;24.192;2023-07-02T01:49:35;94767.25;;;15.43;85.08
61961;BME280;47923;42.506;24.192;2023-07-02T01:52:03;94644.91;;;14.60;86.14
61961;BME280;47923;42.506;24.192;2023-07-02T01:54:30;94819.84;;;15.70;84.45
61961;BME280;47923;42.506;24.192;2023-07-02T01:56:57;94703.38;;;14.79;85.91
61961;BME280;47923;42.506;24.192;2023-07-02T01:59:23;94459.38;;;13.36;84.15
61961;BME280;47923;42.506;24.192;2023-07-02T02:01:49;94455.97;;;13.25;85.40
61961;BME280;47923;42.506;24.192;2023-07-02T02:04:14;94778.53;;;15.41;85.53
61961;BME280;47923;42.506;24.192;2023-07-02T02:06:40;94804.47;;;15.53;85.63
61961;BME280;47923;42.506;24.192;2023-07-02T02:09:07;94466.06;;;13.21;84.96
61961;BME280;47923;42.506;24.192;2023-07-02T02:11:34;94807.63;;;15.48;85.96
61961;BME280;47923;42.506;24.192;2023-07-02T02:14:00;94641.97;;;14.37;84.84
61961;BME280;47923;42.506;24.192;2023-07-02T02:16:27;94803.28;;;15.54;85.45
61961;BME280;47923;42.506;24.192;2023-07-02T02:18:52;94782.97;;;15.28;84.01
61961;BME280;47923;42.506;24.192;2023-07-02T02:21:19;94810.31;;;15.52;85.68
61961;BME280;47923;42.506;24.192;2023-07-02T02:23:44;94824.34;;;15.50;84.25
61961;BME280;47923;42.506;24.192;2023-07-02T02:26:10;94817.31;;;15.49;85.16
61961;BME280;47923;42.506;24.192;2023-07-02T02:28:36;94831.69;;;15.49;84.54
61961;BME280;47923;42.506;24.192;2023-07-02T02:31:01;94845.66;;;15.55;85.56
61961;BME280;47923;42.506;24.192;2023-07-02T02:33:28;94857.72;;;15.58;85.84
61961;BME280;47923;42.506;24.192;2023-07-02T02:35:53;94860.81;;;15.56;86.31
61961;BME280;47923;42.506;24.192;2023-07-02T02:38:19;94761.59;;;14.85;86.23
61961;BME280;47923;42.506;24.192;2023-07-02T02:40:44;94854.97;;;15.58;85.83
61961;BME280;47923;42.506;24.192;2023-07-02T02:43:10;94855.06;;;15.51;86.20
61961;BME280;47923;42.506;24.192;2023-07-02T02:45:35;94709.88;;;14.48;87.05
61961;BME280;47923;42.506;24.192;2023-07-02T02:48:01;94858.56;;;15.47;86.48
61961;BME280;47923;42.506;24.192;2023-07-02T02:50:26;94879.63;;;14.95;86.21
61961;BME280;47923;42.506;24.192;2023-07-02T02:52:52;94715.03;;;14.28;87.23
61961;BME280;47923;42.506;24.192;2023-07-02T02:55:18;94853.00;;;15.20;88.36
61961;BME280;47923;42.506;24.192;2023-07-02T02:57:43;94866.06;;;15.36;88.31
61961;BME280;47923;42.506;24.192;2023-07-02T03:00:10;94865.47;;;15.56;87.70
61961;BME280;47923;42.506;24.192;2023-07-02T03:02:36;94681.78;;;14.61;87.11
61961;BME280;47923;42.506;24.192;2023-07-02T03:05:02;94858.28;;;15.80;87.00
61961;BME280;47923;42.506;24.192;2023-07-02T03:07:28;94770.97;;;15.22;86.06
61961;BME280;47923;42.506;24.192;2023-07-02T03:09:54;94618.81;;;14.25;85.37
61961;BME280;47923;42.506;24.192;2023-07-02T03:12:19;94755.75;;;15.28;85.03
61961;BME280;47923;42.506;24.192;2023-07-02T03:14:45;94783.78;;;15.59;84.09
61961;BME280;47923;42.506;24.192;2023-07-02T03:17:13;94872.44;;;16.32;83.42
61961;BME280;47923;42.506;24.192;2023-07-02T03:19:38;94869.25;;;16.37;83.88
61961;BME280;47923;42.506;24.192;2023-07-02T03:22:04;94873.25;;;16.59;83.10
61961;BME280;47923;42.506;24.192;2023-07-02T03:24:29;94881.25;;;16.74;82.69
61961;BME280;47923;42.506;24.192;2023-07-02T03:26:54;94905.97;;;16.90;82.02
61961;BME280;47923;42.506;24.192;2023-07-02T03:29:20;94398.28;;;14.00;80.66
61961;BME280;47923;42.506;24.192;2023-07-02T03:31:45;94882.41;;;17.27;80.67
61961;BME280;47923;42.506;24.192;2023-07-02T03:34:12;94863.72;;;17.49;78.73
61961;BME280;47923;42.506;24.192;2023-07-02T03:36:37;94788.75;;;17.30;78.25
61961;BME280;47923;42.506;24.192;2023-07-02T03:39:04;94774.78;;;17.71;76.60
61961;BME280;47923;42.506;24.192;2023-07-02T03:41:30;94735.00;;;18.59;73.22
61961;BME280;47923;42.506;24.192;2023-07-02T03:43:55;94866.69;;;20.75;67.66
61961;BME280;47923;42.506;24.192;2023-07-02T03:46:21;94714.97;;;20.61;64.58
61961;BME280;47923;42.506;24.192;2023-07-02T03:48:46;94879.81;;;22.03;63.25
61961;BME280;47923;42.506;24.192;2023-07-02T03:51:12;94884.16;;;22.26;61.48
61961;BME280;47923;42.506;24.192;2023-07-02T03:53:42;94868.16;;;22.12;58.90
61961;BME280;47923;42.506;24.192;2023-07-02T03:56:08;94792.00;;;20.92;61.62
61961;BME280;47923;42.506;24.192;2023-07-02T03:58:33;94825.66;;;20.29;65.60
61961;BME280;47923;42.506;24.192;2023-07-02T04:00:59;94892.00;;;20.24;68.16
61961;BME280;47923;42.506;24.192;2023-07-02T04:03:24;94888.03;;;19.83;69.74
61961;BME280;47923;42.506;24.192;2023-07-02T04:05:50;94874.06;;;19.45;70.56
61961;BME280;47923;42.506;24.192;2023-07-02T04:08:15;94871.63;;;19.35;71.68
61961;BME280;47923;42.506;24.192;2023-07-02T04:10:41;94871.69;;;19.15;74.42
61961;BME280;47923;42.506;24.192;2023-07-02T04:13:07;94870.06;;;19.01;76.48
61961;BME280;47923;42.506;24.192;2023-07-02T04:15:33;94879.59;;;18.76;77.83
61961;BME280;47923;42.506;24.192;2023-07-02T04:17:58;94868.91;;;18.66;77.93
61961;BME280;47923;42.506;24.192;2023-07-02T04:20:24;94758.16;;;17.82;79.24
61961;BME280;47923;42.506;24.192;2023-07-02T04:22:50;94871.69;;;18.42;79.75
61961;BME280;47923;42.506;24.192;2023-07-02T04:25:16;94803.06;;;18.01;79.10
61961;BME280;47923;42.506;24.192;2023-07-02T04:27:42;94851.75;;;18.62;77.75
61961;BME280;47923;42.506;24.192;2023-07-02T04:30:09;94763.16;;;18.23;77.18
61961;BME280;47923;42.506;24.192;2023-07-02T04:32:36;94856.81;;;18.99;75.67
61961;BME280;47923;42.506;24.192;2023-07-02T04:35:01;94875.78;;;18.90;76.15
61961;BME280;47923;42.506;24.192;2023-07-02T04:37:27;94564.97;;;16.90;76.94
61961;BME280;47923;42.506;24.192;2023-07-02T04:39:54;94870.00;;;19.04;78.24
61961;BME280;47923;42.506;24.192;2023-07-02T04:42:19;94885.53;;;19.08;78.32
61961;BME280;47923;42.506;24.192;2023-07-02T04:44:45;94856.84;;;18.80;78.44
61961;BME280;47923;42.506;24.192;2023-07-02T04:47:10;94802.63;;;18.58;78.23
61961;BME280;47923;42.506;24.192;2023-07-02T04:49:37;94639.69;;;17.36;78.58
61961;BME280;47923;42.506;24.192;2023-07-02T04:52:02;94414.91;;;16.14;77.62
61961;BME280;47923;42.506;24.192;2023-07-02T04:54:28;94866.31;;;19.11;77.61
61961;BME280;47923;42.506;24.192;2023-07-02T04:56:53;94767.44;;;18.40;78.75
61961;BME280;47923;42.506;24.192;2023-07-02T04:59:20;94898.72;;;19.13;78.61
61961;BME280;47923;42.506;24.192;2023-07-02T05:01:46;94911.22;;;19.14;78.50
61961;BME280;47923;42.506;24.192;2023-07-02T05:04:12;94921.25;;;19.20;78.84
61961;BME280;47923;42.506;24.192;2023-07-02T05:06:37;94342.97;;;15.25;79.23
61961;BME280;47923;42.506;24.192;2023-07-02T05:09:03;94923.84;;;18.91;81.58
61961;BME280;47923;42.506;24.192;2023-07-02T05:11:29;94808.25;;;18.15;81.62
61961;BME280;47923;42.506;24.192;2023-07-02T05:13:54;94925.78;;;18.74;82.37
61961;BME280;47923;42.506;24.192;2023-07-02T05:16:20;94817.69;;;17.90;82.50
61961;BME280;47923;42.506;24.192;2023-07-02T05:18:45;94947.81;;;18.67;83.18
61961;BME280;47923;42.506;24.192;2023-07-02T05:21:11;94824.56;;;17.79;83.45
61961;BME280;47923;42.506;24.192;2023-07-02T05:23:37;94955.59;;;18.69;84.88
61961;BME280;47923;42.506;24.192;2023-07-02T05:26:02;94878.53;;;17.94;86.12
61961;BME280;47923;42.506;24.192;2023-07-02T05:28:28;94547.72;;;15.60;87.11
61961;BME280;47923;42.506;24.192;2023-07-02T05:30:53;94956.56;;;18.39;87.83
61961;BME280;47923;42.506;24.192;2023-07-02T05:33:19;94502.34;;;15.49;87.89
61961;BME280;47923;42.506;24.192;2023-07-02T05:35:44;94926.72;;;18.64;86.66
61961;BME280;47923;42.506;24.192;2023-07-02T05:38:11;94943.28;;;18.97;85.63
61961;BME280;47923;42.506;24.192;2023-07-02T05:40:36;94866.94;;;18.46;85.75
61961;BME280;47923;42.506;24.192;2023-07-02T05:43:02;94947.69;;;19.11;86.11
61961;BME280;47923;42.506;24.192;2023-07-02T05:45:28;94962.22;;;19.24;86.49
61961;BME280;47923;42.506;24.192;2023-07-02T05:47:54;94938.88;;;19.19;86.25
61961;BME280;47923;42.506;24.192;2023-07-02T05:50:20;94977.50;;;19.41;86.17
61961;BME280;47923;42.506;24.192;2023-07-02T05:52:45;94728.66;;;17.93;85.32
61961;BME280;47923;42.506;24.192;2023-07-02T05:55:11;94722.00;;;17.94;81.88
61961;BME280;47923;42.506;24.192;2023-07-02T05:57:39;94959.31;;;19.31;82.77
61961;BME280;47923;42.506;24.192;2023-07-02T06:00:05;94965.34;;;19.42;83.59
61961;BME280;47923;42.506;24.192;2023-07-02T06:02:31;94974.97;;;19.30;84.66
61961;BME280;47923;42.506;24.192;2023-07-02T06:04:57;94909.41;;;18.91;84.92
61961;BME280;47923;42.506;24.192;2023-07-02T06:07:24;94973.13;;;19.44;85.25
61961;BME280;47923;42.506;24.192;2023-07-02T06:09:49;94458.53;;;15.91;85.06
61961;BME280;47923;42.506;24.192;2023-07-02T06:12:15;94905.47;;;19.08;84.48
61961;BME280;47923;42.506;24.192;2023-07-02T06:14:40;94973.22;;;19.56;83.53
61961;BME280;47923;42.506;24.192;2023-07-02T06:17:07;94721.84;;;17.61;84.91
61961;BME280;47923;42.506;24.192;2023-07-02T06:19:33;94972.63;;;19.49;84.70
61961;BME280;47923;42.506;24.192;2023-07-02T06:21:59;94588.38;;;16.88;85.77
61961;BME280;47923;42.506;24.192;2023-07-02T06:24:25;94527.25;;;16.45;85.71
61961;BME280;47923;42.506;24.192;2023-07-02T06:26:50;94730.53;;;17.96;85.73
61961;BME280;47923;42.506;24.192;2023-07-02T06:29:16;94776.41;;;18.41;88.50
61961;BME280;47923;42.506;24.192;2023-07-02T06:31:41;94832.59;;;18.98;87.71
61961;BME280;47923;42.506;24.192;2023-07-02T06:34:07;94716.44;;;18.50;84.42
61961;BME280;47923;42.506;24.192;2023-07-02T06:36:34;94854.97;;;20.03;80.94
61961;BME280;47923;42.506;24.192;2023-07-02T06:38:59;94911.31;;;21.42;78.71
61961;BME280;47923;42.506;24.192;2023-07-02T06:41:25;94892.97;;;22.21;74.44
61961;BME280;47923;42.506;24.192;2023-07-02T06:43:50;94876.16;;;22.41;74.23
61961;BME280;47923;42.506;24.192;2023-07-02T06:46:16;94553.91;;;20.49;72.04
61961;BME280;47923;42.506;24.192;2023-07-02T06:48:41;94522.19;;;19.88;71.81
61961;BME280;47923;42.506;24.192;2023-07-02T06:51:07;94698.38;;;20.78;72.15
61961;BME280;47923;42.506;24.192;2023-07-02T06:53:33;94650.78;;;20.59;72.08
61961;BME280;47923;42.506;24.192;2023-07-02T06:55:59;94782.47;;;21.79;70.66
61961;BME280;47923;42.506;24.192;2023-07-02T06:58:24;94902.50;;;23.04;69.97
61961;BME280;47923;42.506;24.192;2023-07-02T07:00:49;94660.91;;;21.53;69.96
61961;BME280;47923;42.506;24.192;2023-07-02T07:03:16;94802.66;;;22.51;68.45
61961;BME280;47923;42.506;24.192;2023-07-02T07:05:41;94828.63;;;22.81;69.54
61961;BME280;47923;42.506;24.192;2023-07-02T07:08:07;94809.91;;;22.98;71.56
61961;BME280;47923;42.506;24.192;2023-07-02T07:10:33;94872.81;;;23.49;69.84
61961;BME280;47923;42.506;24.192;2023-07-02T07:13:01;94641.59;;;23.32;65.99
61961;BME280;47923;42.506;24.192;2023-07-02T07:15:31;94820.22;;;27.27;55.33
61961;BME280;47923;42.506;24.192;2023-07-02T07:17:57;94607.81;;;30.32;43.95
61961;BME280;47923;42.506;24.192;2023-07-02T07:20:22;94899.72;;;35.00;36.97
61961;BME280;47923;42.506;24.192;2023-07-02T07:22:48;94677.72;;;33.88;35.11
61961;BME280;47923;42.506;24.192;2023-07-02T07:25:13;94901.81;;;36.03;33.03
61961;BME280;47923;42.506;24.192;2023-07-02T07:27:39;94887.97;;;35.33;32.25
61961;BME280;47923;42.506;24.192;2023-07-02T07:30:05;94654.47;;;33.56;32.16
61961;BME280;47923;42.506;24.192;2023-07-02T07:32:30;94847.47;;;34.40;32.90
61961;BME280;47923;42.506;24.192;2023-07-02T07:34:56;94824.94;;;33.65;34.43
61961;BME280;47923;42.506;24.192;2023-07-02T07:37:21;94921.97;;;33.57;34.39
61961;BME280;47923;42.506;24.192;2023-07-02T07:39:47;94872.75;;;33.42;36.26
61961;BME280;47923;42.506;24.192;2023-07-02T07:42:14;94623.31;;;32.48;32.01
61961;BME280;47923;42.506;24.192;2023-07-02T07:44:40;94694.81;;;32.98;31.75
61961;BME280;47923;42.506;24.192;2023-07-02T07:47:06;94882.75;;;36.62;30.12
61961;BME280;47923;42.506;24.192;2023-07-02T07:49:31;94446.22;;;34.04;29.40
61961;BME280;47923;42.506;24.192;2023-07-02T07:51:56;94908.03;;;35.69;28.34
61961;BME280;47923;42.506;24.192;2023-07-02T07:54:22;94867.63;;;35.59;30.26
61961;BME280;47923;42.506;24.192;2023-07-02T07:56:48;94795.00;;;34.73;30.13
61961;BME280;47923;42.506;24.192;2023-07-02T07:59:13;94642.88;;;31.71;32.72
61961;BME280;47923;42.506;24.192;2023-07-02T08:01:40;94913.16;;;32.06;34.49
61961;BME280;47923;42.506;24.192;2023-07-02T08:04:05;94909.41;;;31.76;36.75
61961;BME280;47923;42.506;24.192;2023-07-02T08:06:31;94686.53;;;29.87;35.04
61961;BME280;47923;42.506;24.192;2023-07-02T08:08:57;94911.19;;;31.51;33.79
61961;BME280;47923;42.506;24.192;2023-07-02T08:11:22;94627.84;;;29.09;36.35
61961;BME280;47923;42.506;24.192;2023-07-02T08:13:47;94768.66;;;30.37;34.97
61961;BME280;47923;42.506;24.192;2023-07-02T08:16:13;94906.41;;;31.46;35.73
61961;BME280;47923;42.506;24.192;2023-07-02T08:18:38;94609.31;;;29.65;34.69
61961;BME280;47923;42.506;24.192;2023-07-02T08:21:04;94910.47;;;32.48;34.12
61961;BME280;47923;42.506;24.192;2023-07-02T08:23:32;94677.56;;;31.40;32.70
61961;BME280;47923;42.506;24.192;2023-07-02T08:25:57;94760.66;;;31.81;33.14
61961;BME280;47923;42.506;24.192;2023-07-02T08:28:23;94625.91;;;32.95;30.34
61961;BME280;47923;42.506;24.192;2023-07-02T08:30:48;94887.31;;;35.86;27.56
61961;BME280;47923;42.506;24.192;2023-07-02T08:33:14;94849.94;;;36.04;26.37
61961;BME280;47923;42.506;24.192;2023-07-02T08:35:39;94656.59;;;37.43;24.82
61961;BME280;47923;42.506;24.192;2023-07-02T08:38:05;94603.81;;;37.07;24.14
61961;BME280;47923;42.506;24.192;2023-07-02T08:40:30;94837.50;;;38.06;23.56
61961;BME280;47923;42.506;24.192;2023-07-02T08:42:56;94885.41;;;39.99;22.91
61961;BME280;47923;42.506;24.192;2023-07-02T08:45:23;94880.63;;;41.20;21.22
61961;BME280;47923;42.506;24.192;2023-07-02T08:47:52;94837.66;;;38.88;21.13
61961;BME280;47923;42.506;24.192;2023-07-02T08:50:21;94896.03;;;38.50;22.89
61961;BME280;47923;42.506;24.192;2023-07-02T08:52:47;94705.06;;;37.21;23.19
61961;BME280;47923;42.506;24.192;2023-07-02T08:55:12;94882.97;;;40.03;21.53
61961;BME280;47923;42.506;24.192;2023-07-02T08:57:38;94828.88;;;41.52;20.25
61961;BME280;47923;42.506;24.192;2023-07-02T09:00:08;94745.56;;;41.48;18.47
61961;BME280;47923;42.506;24.192;2023-07-02T09:02:34;94877.91;;;40.65;19.84
61961;BME280;47923;42.506;24.192;2023-07-02T09:05:01;94872.75;;;41.68;19.76
61961;BME280;47923;42.506;24.192;2023-07-02T09:07:27;94882.69;;;44.45;18.08
61961;BME280;47923;42.506;24.192;2023-07-02T09:09:53;94614.06;;;41.95;17.64
61961;BME280;47923;42.506;24.192;2023-07-02T09:12:29;94790.63;;;40.38;19.95
61961;BME280;47923;42.506;24.192;2023-07-02T09:15:02;94727.56;;;37.70;22.67
61961;BME280;47923;42.506;24.192;2023-07-02T09:17:37;94884.19;;;37.86;23.66
61961;BME280;47923;42.506;24.192;2023-07-02T09:20:04;94885.28;;;37.83;23.89
61961;BME280;47923;42.506;24.192;2023-07-02T09:22:32;94896.31;;;35.97;25.45
61961;BME280;47923;42.506;24.192;2023-07-02T09:24:59;94890.63;;;34.75;27.43
61961;BME280;47923;42.506;24.192;2023-07-02T09:27:41;94830.28;;;34.68;27.67
61961;BME280;47923;42.506;24.192;2023-07-02T09:30:15;94808.53;;;33.50;29.00
61961;BME280;47923;42.506;24.192;2023-07-02T09:32:42;94819.41;;;34.21;29.34
61961;BME280;47923;42.506;24.192;2023-07-02T09:35:08;94862.31;;;35.69;27.66
61961;BME280;47923;42.506;24.192;2023-07-02T09:37:34;94890.41;;;35.56;27.74
61961;BME280;47923;42.506;24.192;2023-07-02T09:40:00;94669.84;;;35.89;24.96
61961;BME280;47923;42.506;24.192;2023-07-02T09:42:27;94782.25;;;36.84;24.90
61961;BME280;47923;42.506;24.192;2023-07-02T09:44:55;94792.09;;;36.09;26.26
61961;BME280;47923;42.506;24.192;2023-07-02T09:47:21;94898.66;;;35.80;27.22
61961;BME280;47923;42.506;24.192;2023-07-02T09:52:23;94837.78;;;34.41;28.28
61961;BME280;47923;42.506;24.192;2023-07-02T09:54:48;94806.94;;;34.41;28.14
61961;BME280;47923;42.506;24.192;2023-07-02T09:57:14;94876.50;;;33.99;28.70
61961;BME280;47923;42.506;24.192;2023-07-02T09:59:40;94830.88;;;33.25;29.32
61961;BME280;47923;42.506;24.192;2023-07-02T10:02:08;94768.34;;;32.16;30.00
61961;BME280;47923;42.506;24.192;2023-07-02T10:04:45;94858.53;;;33.35;29.92
61961;BME280;47923;42.506;24.192;2023-07-02T10:07:11;94371.72;;;29.74;29.98
61961;BME280;47923;42.506;24.192;2023-07-02T10:09:44;94875.66;;;33.25;29.41
61961;BME280;47923;42.506;24.192;2023-07-02T10:12:28;94882.06;;;32.85;30.08
61961;BME280;47923;42.506;24.192;2023-07-02T10:14:56;94827.44;;;32.78;30.82
61961;BME280;47923;42.506;24.192;2023-07-02T10:17:34;94873.78;;;33.04;29.29
61961;BME280;47923;42.506;24.192;2023-07-02T10:20:06;94836.41;;;32.65;30.11
61961;BME280;47923;42.506;24.192;2023-07-02T10:23:02;94806.66;;;32.21;30.01
61961;BME280;47923;42.506;24.192;2023-07-02T10:25:30;94870.25;;;32.62;30.36
61961;BME280;47923;42.506;24.192;2023-07-02T10:27:57;94868.78;;;31.75;31.23
61961;BME280;47923;42.506;24.192;2023-07-02T10:30:32;94866.81;;;31.42;32.08
61961;BME280;47923;42.506;24.192;2023-07-02T10:33:12;94869.09;;;31.09;32.58
61961;BME280;47923;42.506;24.192;2023-07-02T10:35:39;94749.91;;;30.26;32.71
61961;BME280;47923;42.506;24.192;2023-07-02T10:38:07;94755.25;;;30.52;33.00
61961;BME280;47923;42.506;24.192;2023-07-02T10:40:33;94803.69;;;30.77;33.84
61961;BME280;47923;42.506;24.192;2023-07-02T10:42:59;94802.13;;;30.53;32.70
61961;BME280;47923;42.506;24.192;2023-07-02T10:45:34;94823.22;;;29.95;34.00
61961;BME280;47923;42.506;24.192;2023-07-02T10:48:04;94663.81;;;28.86;36.25
61961;BME280;47923;42.506;24.192;2023-07-02T10:50:33;94480.03;;;27.13;35.71
61961;BME280;47923;42.506;24.192;2023-07-02T10:52:59;94817.22;;;29.59;35.75
61961;BME280;47923;42.506;24.192;2023-07-02T10:55:25;94860.19;;;30.01;35.72
61961;BME280;47923;42.506;24.192;2023-07-02T10:58:06;94751.00;;;29.21;37.88
61961;BME280;47923;42.506;24.192;2023-07-02T11:00:32;94852.97;;;30.26;38.01
61961;BME280;47923;42.506;24.192;2023-07-02T11:02:58;94854.09;;;29.91;38.72
61961;BME280;47923;42.506;24.192;2023-07-02T11:05:24;94847.47;;;29.89;38.68
61961;BME280;47923;42.506;24.192;2023-07-02T11:07:49;94796.34;;;29.86;35.06
61961;BME280;47923;42.506;24.192;2023-07-02T11:10:22;94809.91;;;30.21;35.59
61961;BME280;47923;42.506;24.192;2023-07-02T11:12:48;94808.75;;;30.73;35.69
61961;BME280;47923;42.506;24.192;2023-07-02T11:15:15;94829.25;;;31.54;34.49
61961;BME280;47923;42.506;24.192;2023-07-02T11:17:43;94828.91;;;31.91;33.52
61961;BME280;47923;42.506;24.192;2023-07-02T11:20:09;94492.66;;;29.90;31.96
61961;BME280;47923;42.506;24.192;2023-07-02T11:22:37;94559.47;;;29.56;32.95
61961;BME280;47923;42.506;24.192;2023-07-02T11:25:14;94686.81;;;30.85;32.52
61961;BME280;47923;42.506;24.192;2023-07-02T11:27:41;94840.81;;;32.55;32.15
61961;BME280;47923;42.506;24.192;2023-07-02T11:30:07;94823.31;;;33.20;31.01
61961;BME280;47923;42.506;24.192;2023-07-02T11:32:55;94705.91;;;32.49;30.32
61961;BME280;47923;42.506;24.192;2023-07-02T11:35:22;94821.03;;;32.48;31.37
61961;BME280;47923;42.506;24.192;2023-07-02T11:37:48;94765.44;;;31.92;31.41
61961;BME280;47923;42.506;24.192;2023-07-02T11:40:19;94814.66;;;32.88;31.22
61961;BME280;47923;42.506;24.192;2023-07-02T11:42:45;94767.22;;;32.30;31.07
61961;BME280;47923;42.506;24.192;2023-07-02T11:45:10;94692.59;;;32.25;30.25
61961;BME280;47923;42.506;24.192;2023-07-02T11:47:38;94551.66;;;31.49;30.16
61961;BME280;47923;42.506;24.192;2023-07-02T11:50:03;94827.69;;;33.10;30.37
61961;BME280;47923;42.506;24.192;2023-07-02T11:52:29;94828.13;;;32.54;30.93
61961;BME280;47923;42.506;24.192;2023-07-02T11:54:54;94664.72;;;31.03;31.83
61961;BME280;47923;42.506;24.192;2023-07-02T11:57:20;94785.41;;;31.26;33.62
61961;BME280;47923;42.506;24.192;2023-07-02T11:59:46;94759.56;;;30.98;34.10
61961;BME280;47923;42.506;24.192;2023-07-02T12:02:12;94802.91;;;31.04;34.21
61961;BME280;47923;42.506;24.192;2023-07-02T12:04:38;94449.19;;;28.43;34.51
61961;BME280;47923;42.506;24.192;2023-07-02T12:07:04;94440.63;;;27.98;36.32
61961;BME280;47923;42.506;24.192;2023-07-02T12:09:29;94691.94;;;29.42;36.38
61961;BME280;47923;42.506;24.192;2023-07-02T12:11:55;94663.66;;;28.96;36.02
61961;BME280;47923;42.506;24.192;2023-07-02T12:14:21;94569.97;;;28.22;37.14
61961;BME280;47923;42.506;24.192;2023-07-02T12:16:46;94667.41;;;28.50;38.46
61961;BME280;47923;42.506;24.192;2023-07-02T12:19:11;94762.25;;;28.69;37.89
61961;BME280;47923;42.506;24.192;2023-07-02T12:21:37;94737.53;;;29.08;38.09
61961;BME280;47923;42.506;24.192;2023-07-02T12:24:03;94792.28;;;29.82;36.58
61961;BME280;47923;42.506;24.192;2023-07-02T12:26:28;94710.25;;;29.12;37.28
61961;BME280;47923;42.506;24.192;2023-07-02T12:28:54;94785.47;;;29.83;37.23
61961;BME280;47923;42.506;24.192;2023-07-02T12:31:20;94789.69;;;30.26;36.99
61961;BME280;47923;42.506;24.192;2023-07-02T12:33:45;94739.34;;;29.65;37.25
61961;BME280;47923;42.506;24.192;2023-07-02T12:36:11;94717.59;;;29.69;36.50
61961;BME280;47923;42.506;24.192;2023-07-02T12:38:37;94799.56;;;30.44;36.09
61961;BME280;47923;42.506;24.192;2023-07-02T12:41:03;94790.97;;;30.37;36.61
61961;BME280;47923;42.506;24.192;2023-07-02T12:43:28;94740.50;;;30.18;36.25
61961;BME280;47923;42.506;24.192;2023-07-02T12:45:54;94789.22;;;30.56;36.53
61961;BME280;47923;42.506;24.192;2023-07-02T12:48:19;94782.34;;;30.29;36.91
61961;BME280;47923;42.506;24.192;2023-07-02T12:50:58;94782.09;;;30.61;36.49